sensor_id;sensor_type;location;lat;lon;timestamp;temperature;humidity
22290;DHT22;11313;50.116;8.424;2022-12-18T00:01:28;24.80;43.30
22290;DHT22;11313;50.116;8.424;2022-12-18T00:03:55;24.90;43.20
22290;DHT22;11313;50.116;8.424;2022-12-18T00:06:22;24.90;43.10
22290;DHT22;11313;50.116;8.424;2022-12-18T00:08:48;24.90;43.00
22290;DHT22;11313;50.116;8.424;2022-12-18T00:11:15;24.80;43.10
22290;DHT22;11313;50.116;8.424;2022-12-18T00:13:42;24.80;43.20
22290;DHT22;11313;50.116;8.424;2022-12-18T00:16:10;24.80;43.10
22290;DHT22;11313;50.116;8.424;2022-12-18T00:18:36;24.90;43.30
22290;DHT22;11313;50.116;8.424;2022-12-18T00:21:03;24.90;43.20
22290;DHT22;11313;50.116;8.424;2022-12-18T00:23:30;24.90;43.10
22290;DHT22;11313;50.116;8.424;2022-12-18T00:26:00;24.90;43.10
22290;DHT22;11313;50.116;8.424;2022-12-18T00:28:26;24.90;43.00
22290;DHT22;11313;50.116;8.424;2022-12-18T00:31:00;24.90;43.10
22290;DHT22;11313;50.116;8.424;2022-12-18T00:33:25;24.90;43.20
22290;DHT22;11313;50.116;8.424;2022-12-18T00:35:51;24.80;43.10
22290;DHT22;11313;50.116;8.424;2022-12-18T00:38:16;24.80;43.10
22290;DHT22;11313;50.116;8.424;2022-12-18T00:40:42;24.80;43.30
22290;DHT22;11313;50.116;8.424;2022-12-18T00:43:07;24.80;43.30
22290;DHT22;11313;50.116;8.424;2022-12-18T00:45:32;24.80;43.40
22290;DHT22;11313;50.116;8.424;2022-12-18T00:47:58;24.80;43.40
22290;DHT22;11313;50.116;8.424;2022-12-18T00:50:24;24.90;43.20
22290;DHT22;11313;50.116;8.424;2022-12-18T00:52:50;24.90;43.30
22290;DHT22;11313;50.116;8.424;2022-12-18T00:55:16;24.90;43.20
22290;DHT22;11313;50.116;8.424;2022-12-18T00:57:42;24.90;43.20
22290;DHT22;11313;50.116;8.424;2022-12-18T01:00:10;24.80;43.30
22290;DHT22;11313;50.116;8.424;2022-12-18T01:02:36;24.80;43.30
22290;DHT22;11313;50.116;8.424;2022-12-18T01:05:02;24.80;43.40
22290;DHT22;11313;50.116;8.424;2022-12-18T01:07:27;24.80;43.40
22290;DHT22;11313;50.116;8.424;2022-12-18T01:09:53;24.80;43.40
22290;DHT22;11313;50.116;8.424;2022-12-18T01:12:18;24.70;43.50
22290;DHT22;11313;50.116;8.424;2022-12-18T01:14:44;24.70;43.50
22290;DHT22;11313;50.116;8.424;2022-12-18T01:17:09;24.70;43.50
22290;DHT22;11313;50.116;8.424;2022-12-18T01:19:35;24.70;43.60
22290;DHT22;11313;50.116;8.424;2022-12-18T01:22:00;24.80;43.60
22290;DHT22;11313;50.116;8.424;2022-12-18T01:24:26;24.80;43.50
22290;DHT22;11313;50.116;8.424;2022-12-18T01:26:51;24.80;43.50
22290;DHT22;11313;50.116;8.424;2022-12-18T01:29:17;24.80;43.40
22290;DHT22;11313;50.116;8.424;2022-12-18T01:31:43;24.80;43.50
22290;DHT22;11313;50.116;8.424;2022-12-18T01:34:09;24.80;43.50
22290;DHT22;11313;50.116;8.424;2022-12-18T01:36:37;24.80;43.40
22290;DHT22;11313;50.116;8.424;2022-12-18T01:39:10;24.80;43.50
22290;DHT22;11313;50.116;8.424;2022-12-18T01:41:36;24.80;43.50
22290;DHT22;11313;50.116;8.424;2022-12-18T01:50:10;24.80;43.30
22290;DHT22;11313;50.116;8.424;2022-12-18T01:52:37;24.90;43.30
22290;DHT22;11313;50.116;8.424;2022-12-18T01:55:04;24.90;43.30
22290;DHT22;11313;50.116;8.424;2022-12-18T01:57:31;24.90;43.50
22290;DHT22;11313;50.116;8.424;2022-12-18T02:00:06;24.90;43.40
22290;DHT22;11313;50.116;8.424;2022-12-18T02:02:32;24.90;43.40
22290;DHT22;11313;50.116;8.424;2022-12-18T02:04:58;24.90;43.30
22290;DHT22;11313;50.116;8.424;2022-12-18T02:07:42;24.90;43.00
22290;DHT22;11313;50.116;8.424;2022-12-18T02:16:29;25.00;42.40
22290;DHT22;11313;50.116;8.424;2022-12-18T02:19:01;25.00;42.30
22290;DHT22;11313;50.116;8.424;2022-12-18T02:21:50;25.00;42.20
22290;DHT22;11313;50.116;8.424;2022-12-18T02:27:04;25.00;42.10
22290;DHT22;11313;50.116;8.424;2022-12-18T02:29:38;25.00;42.00
22290;DHT22;11313;50.116;8.424;2022-12-18T02:32:10;25.00;41.90
22290;DHT22;11313;50.116;8.424;2022-12-18T02:34:39;25.00;41.80
22290;DHT22;11313;50.116;8.424;2022-12-18T02:37:08;25.00;41.80
22290;DHT22;11313;50.116;8.424;2022-12-18T02:39:37;25.00;41.90
22290;DHT22;11313;50.116;8.424;2022-12-18T02:42:03;25.00;41.80
22290;DHT22;11313;50.116;8.424;2022-12-18T02:44:34;25.00;41.70
22290;DHT22;11313;50.116;8.424;2022-12-18T02:46:59;25.00;41.80
22290;DHT22;11313;50.116;8.424;2022-12-18T02:54:57;25.00;41.50
22290;DHT22;11313;50.116;8.424;2022-12-18T02:57:34;25.00;41.60
22290;DHT22;11313;50.116;8.424;2022-12-18T03:00:06;24.90;41.50
22290;DHT22;11313;50.116;8.424;2022-12-18T03:02:52;24.90;41.50
22290;DHT22;11313;50.116;8.424;2022-12-18T03:05:24;24.90;41.50
22290;DHT22;11313;50.116;8.424;2022-12-18T03:08:12;24.90;41.50
22290;DHT22;11313;50.116;8.424;2022-12-18T03:11:03;24.90;41.50
22290;DHT22;11313;50.116;8.424;2022-12-18T03:13:35;24.90;41.50
22290;DHT22;11313;50.116;8.424;2022-12-18T03:16:03;24.90;41.50
22290;DHT22;11313;50.116;8.424;2022-12-18T03:18:37;24.90;41.40
22290;DHT22;11313;50.116;8.424;2022-12-18T03:21:05;24.90;41.50
22290;DHT22;11313;50.116;8.424;2022-12-18T03:23:40;24.90;41.50
22290;DHT22;11313;50.116;8.424;2022-12-18T03:26:10;24.80;41.50
22290;DHT22;11313;50.116;8.424;2022-12-18T03:28:40;24.90;41.40
22290;DHT22;11313;50.116;8.424;2022-12-18T03:31:07;24.80;41.40
22290;DHT22;11313;50.116;8.424;2022-12-18T03:36:06;24.80;41.40
22290;DHT22;11313;50.116;8.424;2022-12-18T03:38:32;24.80;41.40
22290;DHT22;11313;50.116;8.424;2022-12-18T03:41:15;24.80;41.40
22290;DHT22;11313;50.116;8.424;2022-12-18T03:44:21;24.80;41.40
22290;DHT22;11313;50.116;8.424;2022-12-18T03:47:07;24.70;41.40
22290;DHT22;11313;50.116;8.424;2022-12-18T03:49:57;24.70;41.30
22290;DHT22;11313;50.116;8.424;2022-12-18T03:52:39;24.70;41.30
22290;DHT22;11313;50.116;8.424;2022-12-18T03:55:08;24.70;41.30
22290;DHT22;11313;50.116;8.424;2022-12-18T03:57:35;24.70;41.40
22290;DHT22;11313;50.116;8.424;2022-12-18T04:00:16;24.70;41.40
22290;DHT22;11313;50.116;8.424;2022-12-18T04:02:50;24.70;41.40
22290;DHT22;11313;50.116;8.424;2022-12-18T04:05:17;24.70;41.40
22290;DHT22;11313;50.116;8.424;2022-12-18T04:07:44;24.80;41.40
22290;DHT22;11313;50.116;8.424;2022-12-18T04:10:11;24.70;41.30
22290;DHT22;11313;50.116;8.424;2022-12-18T04:12:37;24.70;41.30
22290;DHT22;11313;50.116;8.424;2022-12-18T04:15:04;24.70;41.30
22290;DHT22;11313;50.116;8.424;2022-12-18T04:17:29;24.70;41.30
22290;DHT22;11313;50.116;8.424;2022-12-18T04:19:55;24.70;41.30
22290;DHT22;11313;50.116;8.424;2022-12-18T04:22:20;24.70;41.30
22290;DHT22;11313;50.116;8.424;2022-12-18T04:24:46;24.70;41.30
22290;DHT22;11313;50.116;8.424;2022-12-18T04:27:11;24.70;41.20
22290;DHT22;11313;50.116;8.424;2022-12-18T04:29:37;24.70;41.30
22290;DHT22;11313;50.116;8.424;2022-12-18T04:32:03;24.70;41.20
22290;DHT22;11313;50.116;8.424;2022-12-18T04:34:29;24.70;41.20
22290;DHT22;11313;50.116;8.424;2022-12-18T04:36:54;24.60;41.20
22290;DHT22;11313;50.116;8.424;2022-12-18T04:39:20;24.70;41.30
22290;DHT22;11313;50.116;8.424;2022-12-18T04:41:45;24.60;41.20
22290;DHT22;11313;50.116;8.424;2022-12-18T04:44:11;24.60;41.10
22290;DHT22;11313;50.116;8.424;2022-12-18T04:46:36;24.70;41.20
22290;DHT22;11313;50.116;8.424;2022-12-18T04:49:02;24.70;41.20
22290;DHT22;11313;50.116;8.424;2022-12-18T04:51:27;24.60;41.20
22290;DHT22;11313;50.116;8.424;2022-12-18T04:53:53;24.60;41.20
22290;DHT22;11313;50.116;8.424;2022-12-18T04:56:19;24.60;41.20
22290;DHT22;11313;50.116;8.424;2022-12-18T04:58:45;24.60;41.20
22290;DHT22;11313;50.116;8.424;2022-12-18T05:01:12;24.60;41.20
22290;DHT22;11313;50.116;8.424;2022-12-18T05:03:38;24.60;41.20
22290;DHT22;11313;50.116;8.424;2022-12-18T05:06:04;24.60;41.20
22290;DHT22;11313;50.116;8.424;2022-12-18T05:08:30;24.60;41.10
22290;DHT22;11313;50.116;8.424;2022-12-18T05:13:29;24.60;41.10
22290;DHT22;11313;50.116;8.424;2022-12-18T05:15:55;24.60;41.10
22290;DHT22;11313;50.116;8.424;2022-12-18T05:18:22;24.70;41.10
22290;DHT22;11313;50.116;8.424;2022-12-18T05:20:49;24.70;41.00
22290;DHT22;11313;50.116;8.424;2022-12-18T05:23:15;24.70;41.10
22290;DHT22;11313;50.116;8.424;2022-12-18T05:25:40;24.60;41.10
22290;DHT22;11313;50.116;8.424;2022-12-18T05:28:06;24.60;41.00
22290;DHT22;11313;50.116;8.424;2022-12-18T05:30:31;24.70;41.00
22290;DHT22;11313;50.116;8.424;2022-12-18T05:32:57;24.60;41.00
22290;DHT22;11313;50.116;8.424;2022-12-18T05:35:22;24.60;41.00
22290;DHT22;11313;50.116;8.424;2022-12-18T05:37:48;24.60;41.00
22290;DHT22;11313;50.116;8.424;2022-12-18T05:40:13;24.60;41.00
22290;DHT22;11313;50.116;8.424;2022-12-18T05:42:39;24.60;41.10
22290;DHT22;11313;50.116;8.424;2022-12-18T05:45:05;24.60;41.10
22290;DHT22;11313;50.116;8.424;2022-12-18T05:47:31;24.70;41.00
22290;DHT22;11313;50.116;8.424;2022-12-18T05:49:56;24.70;41.00
22290;DHT22;11313;50.116;8.424;2022-12-18T05:52:22;24.70;40.90
22290;DHT22;11313;50.116;8.424;2022-12-18T05:54:47;24.70;41.00
22290;DHT22;11313;50.116;8.424;2022-12-18T05:57:13;24.70;41.00
22290;DHT22;11313;50.116;8.424;2022-12-18T05:59:39;24.70;40.90
22290;DHT22;11313;50.116;8.424;2022-12-18T06:02:04;24.70;40.90
22290;DHT22;11313;50.116;8.424;2022-12-18T06:04:33;24.70;40.90
22290;DHT22;11313;50.116;8.424;2022-12-18T06:06:59;24.70;40.90
22290;DHT22;11313;50.116;8.424;2022-12-18T06:09:24;24.70;40.90
22290;DHT22;11313;50.116;8.424;2022-12-18T06:11:51;24.70;40.90
22290;DHT22;11313;50.116;8.424;2022-12-18T06:14:17;24.70;40.80
22290;DHT22;11313;50.116;8.424;2022-12-18T06:16:42;24.70;40.80
22290;DHT22;11313;50.116;8.424;2022-12-18T06:19:14;24.70;40.80
22290;DHT22;11313;50.116;8.424;2022-12-18T06:21:40;24.70;40.80
22290;DHT22;11313;50.116;8.424;2022-12-18T06:24:06;24.70;40.80
22290;DHT22;11313;50.116;8.424;2022-12-18T06:26:31;24.70;40.70
22290;DHT22;11313;50.116;8.424;2022-12-18T06:28:57;24.70;40.80
22290;DHT22;11313;50.116;8.424;2022-12-18T06:31:22;24.70;40.70
22290;DHT22;11313;50.116;8.424;2022-12-18T06:33:48;24.70;40.70
22290;DHT22;11313;50.116;8.424;2022-12-18T06:36:13;24.70;40.70
22290;DHT22;11313;50.116;8.424;2022-12-18T06:38:41;24.70;40.80
22290;DHT22;11313;50.116;8.424;2022-12-18T06:41:14;24.70;40.70
22290;DHT22;11313;50.116;8.424;2022-12-18T06:43:40;24.70;40.70
22290;DHT22;11313;50.116;8.424;2022-12-18T06:46:09;24.70;40.80
22290;DHT22;11313;50.116;8.424;2022-12-18T06:48:35;24.70;40.80
22290;DHT22;11313;50.116;8.424;2022-12-18T06:51:01;24.70;40.70
22290;DHT22;11313;50.116;8.424;2022-12-18T06:53:27;24.70;40.80
22290;DHT22;11313;50.116;8.424;2022-12-18T06:55:59;24.70;40.80
22290;DHT22;11313;50.116;8.424;2022-12-18T06:58:24;24.70;40.70
22290;DHT22;11313;50.116;8.424;2022-12-18T07:00:50;24.70;40.70
22290;DHT22;11313;50.116;8.424;2022-12-18T07:03:15;24.70;40.70
22290;DHT22;11313;50.116;8.424;2022-12-18T07:05:41;24.70;40.70
22290;DHT22;11313;50.116;8.424;2022-12-18T07:08:06;24.60;40.70
22290;DHT22;11313;50.116;8.424;2022-12-18T07:10:32;24.60;40.70
22290;DHT22;11313;50.116;8.424;2022-12-18T07:12:57;24.60;40.80
22290;DHT22;11313;50.116;8.424;2022-12-18T07:15:23;24.60;40.80
22290;DHT22;11313;50.116;8.424;2022-12-18T07:17:48;24.60;40.70
22290;DHT22;11313;50.116;8.424;2022-12-18T07:20:14;24.60;40.80
22290;DHT22;11313;50.116;8.424;2022-12-18T07:22:39;24.60;40.90
22290;DHT22;11313;50.116;8.424;2022-12-18T07:25:05;24.60;40.90
22290;DHT22;11313;50.116;8.424;2022-12-18T07:27:31;24.50;40.80
22290;DHT22;11313;50.116;8.424;2022-12-18T07:29:57;24.50;40.80
22290;DHT22;11313;50.116;8.424;2022-12-18T07:32:22;24.50;40.80
22290;DHT22;11313;50.116;8.424;2022-12-18T07:34:47;24.50;41.50
22290;DHT22;11313;50.116;8.424;2022-12-18T07:37:13;24.50;40.90
22290;DHT22;11313;50.116;8.424;2022-12-18T07:39:38;24.50;40.80
22290;DHT22;11313;50.116;8.424;2022-12-18T07:42:08;24.50;40.90
22290;DHT22;11313;50.116;8.424;2022-12-18T07:44:52;24.50;40.90
22290;DHT22;11313;50.116;8.424;2022-12-18T07:47:17;24.50;40.90
22290;DHT22;11313;50.116;8.424;2022-12-18T07:49:43;24.50;40.90
22290;DHT22;11313;50.116;8.424;2022-12-18T07:52:08;24.50;40.90
22290;DHT22;11313;50.116;8.424;2022-12-18T07:54:34;24.50;40.90
22290;DHT22;11313;50.116;8.424;2022-12-18T07:57:00;24.50;40.90
22290;DHT22;11313;50.116;8.424;2022-12-18T07:59:25;24.50;40.90
22290;DHT22;11313;50.116;8.424;2022-12-18T08:01:51;24.50;40.90
22290;DHT22;11313;50.116;8.424;2022-12-18T08:04:17;24.50;40.90
22290;DHT22;11313;50.116;8.424;2022-12-18T08:06:42;24.50;40.90
22290;DHT22;11313;50.116;8.424;2022-12-18T08:09:10;24.50;40.90
22290;DHT22;11313;50.116;8.424;2022-12-18T08:11:35;24.50;40.90
22290;DHT22;11313;50.116;8.424;2022-12-18T08:14:01;24.50;40.90
22290;DHT22;11313;50.116;8.424;2022-12-18T08:16:26;24.50;40.80
22290;DHT22;11313;50.116;8.424;2022-12-18T08:18:53;24.50;40.90
22290;DHT22;11313;50.116;8.424;2022-12-18T08:21:21;24.50;40.80
22290;DHT22;11313;50.116;8.424;2022-12-18T08:23:48;24.50;40.80
22290;DHT22;11313;50.116;8.424;2022-12-18T08:26:14;24.50;40.80
22290;DHT22;11313;50.116;8.424;2022-12-18T08:28:40;24.50;40.80
22290;DHT22;11313;50.116;8.424;2022-12-18T08:31:06;24.50;40.70
22290;DHT22;11313;50.116;8.424;2022-12-18T08:33:33;24.50;40.70
22290;DHT22;11313;50.116;8.424;2022-12-18T08:35:59;24.50;40.80
22290;DHT22;11313;50.116;8.424;2022-12-18T08:38:25;24.50;40.70
22290;DHT22;11313;50.116;8.424;2022-12-18T08:40:58;24.40;40.60
22290;DHT22;11313;50.116;8.424;2022-12-18T08:43:24;24.50;40.70
22290;DHT22;11313;50.116;8.424;2022-12-18T08:46:09;24.50;40.70
22290;DHT22;11313;50.116;8.424;2022-12-18T08:48:34;24.40;40.70
22290;DHT22;11313;50.116;8.424;2022-12-18T08:51:00;24.40;40.70
22290;DHT22;11313;50.116;8.424;2022-12-18T08:53:26;24.40;40.70
22290;DHT22;11313;50.116;8.424;2022-12-18T08:55:52;24.50;40.70
22290;DHT22;11313;50.116;8.424;2022-12-18T08:58:18;24.40;40.60
22290;DHT22;11313;50.116;8.424;2022-12-18T09:00:44;24.50;40.70
22290;DHT22;11313;50.116;8.424;2022-12-18T09:03:17;24.50;40.70
22290;DHT22;11313;50.116;8.424;2022-12-18T09:05:43;24.50;40.70
22290;DHT22;11313;50.116;8.424;2022-12-18T09:08:10;24.50;40.60
22290;DHT22;11313;50.116;8.424;2022-12-18T09:10:42;24.50;40.60
22290;DHT22;11313;50.116;8.424;2022-12-18T09:13:10;24.50;40.60
22290;DHT22;11313;50.116;8.424;2022-12-18T09:15:40;24.50;40.60
22290;DHT22;11313;50.116;8.424;2022-12-18T09:18:06;24.50;40.60
22290;DHT22;11313;50.116;8.424;2022-12-18T09:20:32;24.50;40.50
22290;DHT22;11313;50.116;8.424;2022-12-18T09:22:57;24.50;40.60
22290;DHT22;11313;50.116;8.424;2022-12-18T09:25:23;24.50;40.60
22290;DHT22;11313;50.116;8.424;2022-12-18T09:27:48;24.50;40.60
22290;DHT22;11313;50.116;8.424;2022-12-18T09:30:14;24.50;40.60
22290;DHT22;11313;50.116;8.424;2022-12-18T09:32:39;24.50;40.60
22290;DHT22;11313;50.116;8.424;2022-12-18T09:35:05;24.50;40.60
22290;DHT22;11313;50.116;8.424;2022-12-18T09:37:30;24.50;40.50
22290;DHT22;11313;50.116;8.424;2022-12-18T09:39:56;24.50;40.50
22290;DHT22;11313;50.116;8.424;2022-12-18T09:42:22;24.50;40.50
22290;DHT22;11313;50.116;8.424;2022-12-18T09:44:53;24.50;40.50
22290;DHT22;11313;50.116;8.424;2022-12-18T09:47:32;24.50;40.50
22290;DHT22;11313;50.116;8.424;2022-12-18T09:50:15;24.50;40.50
22290;DHT22;11313;50.116;8.424;2022-12-18T09:52:45;24.50;40.50
22290;DHT22;11313;50.116;8.424;2022-12-18T09:55:33;24.50;40.50
22290;DHT22;11313;50.116;8.424;2022-12-18T09:58:32;24.50;40.50
22290;DHT22;11313;50.116;8.424;2022-12-18T10:01:01;24.50;40.60
22290;DHT22;11313;50.116;8.424;2022-12-18T10:03:27;24.50;40.50
22290;DHT22;11313;50.116;8.424;2022-12-18T10:17:39;24.40;41.20
22290;DHT22;11313;50.116;8.424;2022-12-18T10:20:32;24.40;41.20
22290;DHT22;11313;50.116;8.424;2022-12-18T10:23:04;24.40;41.30
22290;DHT22;11313;50.116;8.424;2022-12-18T10:28:14;24.20;41.40
22290;DHT22;11313;50.116;8.424;2022-12-18T10:30:41;24.30;41.50
22290;DHT22;11313;50.116;8.424;2022-12-18T10:33:20;24.20;41.40
22290;DHT22;11313;50.116;8.424;2022-12-18T10:35:48;24.20;41.40
22290;DHT22;11313;50.116;8.424;2022-12-18T10:40:52;24.20;41.50
22290;DHT22;11313;50.116;8.424;2022-12-18T10:43:44;24.20;41.50
22290;DHT22;11313;50.116;8.424;2022-12-18T10:46:14;24.20;41.50
22290;DHT22;11313;50.116;8.424;2022-12-18T10:51:22;24.20;41.60
22290;DHT22;11313;50.116;8.424;2022-12-18T10:53:56;24.20;41.60
22290;DHT22;11313;50.116;8.424;2022-12-18T10:56:24;24.20;41.70
22290;DHT22;11313;50.116;8.424;2022-12-18T10:59:02;24.20;41.70
22290;DHT22;11313;50.116;8.424;2022-12-18T11:04:24;24.20;41.80
22290;DHT22;11313;50.116;8.424;2022-12-18T11:07:04;24.20;41.80
22290;DHT22;11313;50.116;8.424;2022-12-18T11:09:31;24.20;41.80
22290;DHT22;11313;50.116;8.424;2022-12-18T11:12:02;24.20;41.80
22290;DHT22;11313;50.116;8.424;2022-12-18T11:14:52;24.20;41.80
22290;DHT22;11313;50.116;8.424;2022-12-18T11:17:28;24.20;41.80
22290;DHT22;11313;50.116;8.424;2022-12-18T11:19:57;24.20;41.80
22290;DHT22;11313;50.116;8.424;2022-12-18T11:22:28;24.20;41.90
22290;DHT22;11313;50.116;8.424;2022-12-18T11:25:00;24.20;41.80
22290;DHT22;11313;50.116;8.424;2022-12-18T11:27:26;24.20;41.80
22290;DHT22;11313;50.116;8.424;2022-12-18T11:30:40;24.20;41.80
22290;DHT22;11313;50.116;8.424;2022-12-18T11:33:11;24.20;41.70
22290;DHT22;11313;50.116;8.424;2022-12-18T11:35:51;24.30;41.70
22290;DHT22;11313;50.116;8.424;2022-12-18T11:40:47;24.30;41.60
22290;DHT22;11313;50.116;8.424;2022-12-18T11:43:16;24.40;41.70
22290;DHT22;11313;50.116;8.424;2022-12-18T11:45:52;24.40;41.70
22290;DHT22;11313;50.116;8.424;2022-12-18T11:48:22;24.30;41.70
22290;DHT22;11313;50.116;8.424;2022-12-18T11:50:51;24.40;41.60
22290;DHT22;11313;50.116;8.424;2022-12-18T11:53:18;24.40;41.70
22290;DHT22;11313;50.116;8.424;2022-12-18T11:56:04;24.40;41.60
22290;DHT22;11313;50.116;8.424;2022-12-18T11:58:45;24.40;41.70
22290;DHT22;11313;50.116;8.424;2022-12-18T12:01:41;24.40;41.70
22290;DHT22;11313;50.116;8.424;2022-12-18T12:04:14;24.40;42.20
22290;DHT22;11313;50.116;8.424;2022-12-18T12:13:06;24.40;41.60
22290;DHT22;11313;50.116;8.424;2022-12-18T12:15:52;24.40;41.60
22290;DHT22;11313;50.116;8.424;2022-12-18T12:18:31;24.40;41.60
22290;DHT22;11313;50.116;8.424;2022-12-18T12:21:16;24.40;41.60
22290;DHT22;11313;50.116;8.424;2022-12-18T12:32:01;24.30;41.80
22290;DHT22;11313;50.116;8.424;2022-12-18T12:34:44;24.30;41.70
22290;DHT22;11313;50.116;8.424;2022-12-18T12:37:36;24.40;41.80
22290;DHT22;11313;50.116;8.424;2022-12-18T12:40:05;24.40;41.80
22290;DHT22;11313;50.116;8.424;2022-12-18T12:42:44;24.30;41.80
22290;DHT22;11313;50.116;8.424;2022-12-18T12:45:36;24.40;41.80
22290;DHT22;11313;50.116;8.424;2022-12-18T12:48:06;24.30;41.70
22290;DHT22;11313;50.116;8.424;2022-12-18T12:50:35;24.40;41.80
22290;DHT22;11313;50.116;8.424;2022-12-18T12:53:06;24.40;41.90
22290;DHT22;11313;50.116;8.424;2022-12-18T12:55:33;24.30;41.80
22290;DHT22;11313;50.116;8.424;2022-12-18T12:58:08;24.40;41.90
22290;DHT22;11313;50.116;8.424;2022-12-18T13:00:46;24.40;41.90
22290;DHT22;11313;50.116;8.424;2022-12-18T13:06:12;24.40;41.90
22290;DHT22;11313;50.116;8.424;2022-12-18T13:08:54;24.30;41.80
22290;DHT22;11313;50.116;8.424;2022-12-18T13:11:38;24.30;41.80
22290;DHT22;11313;50.116;8.424;2022-12-18T13:14:38;24.40;41.80
22290;DHT22;11313;50.116;8.424;2022-12-18T13:20:02;24.40;41.80
22290;DHT22;11313;50.116;8.424;2022-12-18T13:22:34;24.40;41.80
22290;DHT22;11313;50.116;8.424;2022-12-18T13:25:00;24.40;41.90
22290;DHT22;11313;50.116;8.424;2022-12-18T13:27:57;24.40;41.80
22290;DHT22;11313;50.116;8.424;2022-12-18T13:41:20;24.40;41.80
22290;DHT22;11313;50.116;8.424;2022-12-18T13:43:57;24.40;41.80
22290;DHT22;11313;50.116;8.424;2022-12-18T13:46:46;24.40;41.80
22290;DHT22;11313;50.116;8.424;2022-12-18T13:51:40;24.30;41.80
22290;DHT22;11313;50.116;8.424;2022-12-18T13:54:35;24.30;42.50
22290;DHT22;11313;50.116;8.424;2022-12-18T13:57:11;24.40;41.90
22290;DHT22;11313;50.116;8.424;2022-12-18T13:59:50;24.40;41.90
22290;DHT22;11313;50.116;8.424;2022-12-18T14:02:19;24.40;41.90
22290;DHT22;11313;50.116;8.424;2022-12-18T14:04:47;24.40;41.90
22290;DHT22;11313;50.116;8.424;2022-12-18T14:07:14;24.40;41.90
22290;DHT22;11313;50.116;8.424;2022-12-18T14:09:42;24.40;41.90
22290;DHT22;11313;50.116;8.424;2022-12-18T14:12:32;24.40;41.90
22290;DHT22;11313;50.116;8.424;2022-12-18T14:15:38;24.40;41.90
22290;DHT22;11313;50.116;8.424;2022-12-18T14:18:20;24.40;41.90
22290;DHT22;11313;50.116;8.424;2022-12-18T14:20:48;24.40;41.90
22290;DHT22;11313;50.116;8.424;2022-12-18T14:23:38;24.40;41.90
22290;DHT22;11313;50.116;8.424;2022-12-18T14:26:21;24.40;42.00
22290;DHT22;11313;50.116;8.424;2022-12-18T14:28:47;24.40;41.90
22290;DHT22;11313;50.116;8.424;2022-12-18T14:31:21;24.40;41.90
22290;DHT22;11313;50.116;8.424;2022-12-18T14:33:47;24.40;41.90
22290;DHT22;11313;50.116;8.424;2022-12-18T14:36:16;24.40;42.00
22290;DHT22;11313;50.116;8.424;2022-12-18T14:38:42;24.40;41.90
22290;DHT22;11313;50.116;8.424;2022-12-18T14:41:16;24.40;41.90
22290;DHT22;11313;50.116;8.424;2022-12-18T14:43:44;24.40;42.00
22290;DHT22;11313;50.116;8.424;2022-12-18T14:49:04;24.40;42.00
22290;DHT22;11313;50.116;8.424;2022-12-18T14:51:32;24.40;42.00
22290;DHT22;11313;50.116;8.424;2022-12-18T14:54:03;24.40;42.00
22290;DHT22;11313;50.116;8.424;2022-12-18T14:56:35;24.40;42.00
22290;DHT22;11313;50.116;8.424;2022-12-18T14:59:21;24.40;42.00
22290;DHT22;11313;50.116;8.424;2022-12-18T15:04:53;24.40;42.00
22290;DHT22;11313;50.116;8.424;2022-12-18T15:07:24;24.40;42.00
22290;DHT22;11313;50.116;8.424;2022-12-18T15:10:13;24.40;42.00
22290;DHT22;11313;50.116;8.424;2022-12-18T15:12:42;24.40;42.00
22290;DHT22;11313;50.116;8.424;2022-12-18T15:20:49;24.40;42.10
22290;DHT22;11313;50.116;8.424;2022-12-18T15:23:26;24.40;42.00
22290;DHT22;11313;50.116;8.424;2022-12-18T15:26:01;24.40;42.00
22290;DHT22;11313;50.116;8.424;2022-12-18T15:28:50;24.40;42.10
22290;DHT22;11313;50.116;8.424;2022-12-18T15:36:19;24.30;42.00
22290;DHT22;11313;50.116;8.424;2022-12-18T15:38:49;24.40;42.10
22290;DHT22;11313;50.116;8.424;2022-12-18T15:41:19;24.40;42.10
22290;DHT22;11313;50.116;8.424;2022-12-18T15:43:49;24.40;42.10
22290;DHT22;11313;50.116;8.424;2022-12-18T15:46:20;24.40;42.00
22290;DHT22;11313;50.116;8.424;2022-12-18T15:48:46;24.40;42.10
22290;DHT22;11313;50.116;8.424;2022-12-18T15:53:47;24.40;42.10
22290;DHT22;11313;50.116;8.424;2022-12-18T15:56:14;24.40;42.10
22290;DHT22;11313;50.116;8.424;2022-12-18T15:58:59;24.40;42.10
22290;DHT22;11313;50.116;8.424;2022-12-18T16:01:28;24.40;42.10
22290;DHT22;11313;50.116;8.424;2022-12-18T16:03:55;24.40;42.10
22290;DHT22;11313;50.116;8.424;2022-12-18T16:06:21;24.40;42.10
22290;DHT22;11313;50.116;8.424;2022-12-18T16:08:47;24.40;42.20
22290;DHT22;11313;50.116;8.424;2022-12-18T16:11:24;24.40;42.80
22290;DHT22;11313;50.116;8.424;2022-12-18T16:16:45;24.40;42.10
22290;DHT22;11313;50.116;8.424;2022-12-18T16:19:11;24.40;42.10
22290;DHT22;11313;50.116;8.424;2022-12-18T16:21:37;24.40;42.10
22290;DHT22;11313;50.116;8.424;2022-12-18T16:24:03;24.40;42.10
22290;DHT22;11313;50.116;8.424;2022-12-18T16:26:31;24.40;42.10
22290;DHT22;11313;50.116;8.424;2022-12-18T16:28:57;24.40;42.10
22290;DHT22;11313;50.116;8.424;2022-12-18T16:31:22;24.40;42.10
22290;DHT22;11313;50.116;8.424;2022-12-18T16:33:47;24.40;42.10
22290;DHT22;11313;50.116;8.424;2022-12-18T16:36:13;24.40;42.10
22290;DHT22;11313;50.116;8.424;2022-12-18T16:38:38;24.40;42.10
22290;DHT22;11313;50.116;8.424;2022-12-18T16:41:18;24.40;42.10
22290;DHT22;11313;50.116;8.424;2022-12-18T16:43:59;24.40;42.10
22290;DHT22;11313;50.116;8.424;2022-12-18T16:46:25;24.40;42.10
22290;DHT22;11313;50.116;8.424;2022-12-18T16:48:50;24.40;42.10
22290;DHT22;11313;50.116;8.424;2022-12-18T16:51:16;24.40;42.10
22290;DHT22;11313;50.116;8.424;2022-12-18T16:53:41;24.40;42.10
22290;DHT22;11313;50.116;8.424;2022-12-18T16:56:07;24.40;42.00
22290;DHT22;11313;50.116;8.424;2022-12-18T16:58:32;24.40;42.00
22290;DHT22;11313;50.116;8.424;2022-12-18T17:00:58;24.40;42.00
22290;DHT22;11313;50.116;8.424;2022-12-18T17:03:24;24.40;42.10
22290;DHT22;11313;50.116;8.424;2022-12-18T17:05:49;24.40;42.10
22290;DHT22;11313;50.116;8.424;2022-12-18T17:08:15;24.40;42.00
22290;DHT22;11313;50.116;8.424;2022-12-18T17:10:40;24.40;42.10
22290;DHT22;11313;50.116;8.424;2022-12-18T17:13:06;24.40;42.10
22290;DHT22;11313;50.116;8.424;2022-12-18T17:15:35;24.40;42.10
22290;DHT22;11313;50.116;8.424;2022-12-18T17:18:01;24.40;42.10
22290;DHT22;11313;50.116;8.424;2022-12-18T17:20:26;24.40;42.10
22290;DHT22;11313;50.116;8.424;2022-12-18T17:22:52;24.40;42.10
22290;DHT22;11313;50.116;8.424;2022-12-18T17:25:17;24.40;42.10
22290;DHT22;11313;50.116;8.424;2022-12-18T17:27:43;24.40;42.20
22290;DHT22;11313;50.116;8.424;2022-12-18T17:30:09;24.40;42.20
22290;DHT22;11313;50.116;8.424;2022-12-18T17:32:35;24.40;42.20
22290;DHT22;11313;50.116;8.424;2022-12-18T17:35:00;24.40;42.80